createdAt,value
2018-02-12T01:39:09.541Z,1001.85
2018-02-12T01:39:10.046Z,1001.84
2018-02-12T01:39:10.644Z,1001.82
2018-02-12T01:39:11.244Z,1001.77
2018-02-12T01:39:11.847Z,1001.83
2018-02-12T01:40:05.303Z,1001.85
2018-02-12T01:40:05.873Z,1001.84
2018-02-12T01:40:06.475Z,1001.84
2018-02-12T01:40:07.072Z,1001.86
2018-02-12T01:40:07.673Z,1001.83
2018-02-12T01:40:08.271Z,1001.83
2018-02-12T01:40:08.870Z,1001.84
2018-02-12T01:40:09.470Z,1001.87
2018-02-12T01:41:02.955Z,1001.86
2018-02-12T01:41:03.527Z,1001.86
2018-02-12T01:41:04.126Z,1001.85
2018-02-12T01:41:04.724Z,1001.88
2018-02-12T01:41:05.323Z,1001.83
2018-02-12T01:41:05.923Z,1001.86
2018-02-12T01:41:06.524Z,1001.91
2018-02-12T01:41:07.129Z,1001.88
2018-02-12T01:42:00.606Z,1001.91
2018-02-12T01:42:01.177Z,1001.89
2018-02-12T01:42:01.777Z,1001.91
2018-02-12T01:42:02.377Z,1001.86
2018-02-12T01:42:02.978Z,1001.83
2018-02-12T01:42:03.576Z,1001.86
2018-02-12T01:42:04.176Z,1001.86
2018-02-12T01:42:04.778Z,1001.87
2018-02-12T01:42:59.281Z,1001.83
2018-02-12T01:42:59.853Z,1001.81
2018-02-12T01:43:00.452Z,1001.81
2018-02-12T01:43:01.052Z,1001.82
2018-02-12T01:43:01.652Z,1001.82
2018-02-12T01:43:02.251Z,1001.83
2018-02-12T01:43:02.853Z,1001.79
2018-02-12T01:43:03.453Z,1001.83
2018-02-12T01:43:57.966Z,1001.83
2018-02-12T01:43:58.530Z,1001.86
2018-02-12T01:43:59.136Z,1001.87
2018-02-12T01:43:59.727Z,1001.88
2018-02-12T01:44:00.327Z,1001.85
2018-02-12T01:44:00.929Z,1001.88
2018-02-12T01:44:01.532Z,1001.87
2018-02-12T01:44:02.130Z,1001.86
2018-02-12T01:44:56.634Z,1001.94
2018-02-12T01:44:57.204Z,1001.89
2018-02-12T01:44:57.805Z,1001.84
2018-02-12T01:44:58.405Z,1001.88
2018-02-12T01:44:59.004Z,1001.91
2018-02-12T01:44:59.603Z,1001.90
2018-02-12T01:45:00.215Z,1001.88
2018-02-12T01:45:00.805Z,1001.89
2018-02-12T01:45:55.309Z,1001.87
2018-02-12T01:45:55.880Z,1001.88
2018-02-12T01:45:56.480Z,1001.88
2018-02-12T01:45:57.080Z,1001.87
2018-02-12T01:45:57.680Z,1001.87
2018-02-12T01:45:58.279Z,1001.86
2018-02-12T01:45:58.878Z,1001.89
2018-02-12T01:45:59.480Z,1001.93
2018-02-12T01:46:52.961Z,1001.92
2018-02-12T01:46:53.532Z,1001.92
2018-02-12T01:46:54.131Z,1001.94
2018-02-12T01:46:54.733Z,1001.94
2018-02-12T01:46:55.337Z,1001.94
2018-02-12T01:46:55.932Z,1001.94
2018-02-12T01:46:56.533Z,1001.98
2018-02-12T01:46:57.132Z,1001.97
2018-02-12T01:47:50.614Z,1001.99
2018-02-12T01:47:51.186Z,1001.96
2018-02-12T01:47:51.785Z,1001.93
2018-02-12T01:47:52.386Z,1001.90
2018-02-12T01:47:52.984Z,1001.88
2018-02-12T01:47:53.585Z,1001.91
2018-02-12T01:47:54.184Z,1001.90
2018-02-12T01:47:54.783Z,1001.94
2018-02-12T01:48:48.774Z,1001.98
2018-02-12T01:48:49.350Z,1002.01
2018-02-12T01:48:49.949Z,1001.99
2018-02-12T01:48:50.548Z,1001.98
2018-02-12T01:48:51.147Z,1002.00
2018-02-12T01:48:51.747Z,1001.94
2018-02-12T01:48:52.348Z,1001.95
2018-02-12T01:49:46.837Z,1001.94
2018-02-12T01:49:47.408Z,1001.91
2018-02-12T01:49:48.010Z,1001.92
2018-02-12T01:49:48.609Z,1001.93
2018-02-12T01:49:49.209Z,1001.95
2018-02-12T01:49:49.808Z,1001.96
2018-02-12T01:49:50.408Z,1001.95
2018-02-12T01:49:51.035Z,1001.93
2018-02-12T01:50:44.490Z,1001.90
2018-02-12T01:50:45.062Z,1001.92
2018-02-12T01:50:45.663Z,1001.92
2018-02-12T01:50:46.262Z,1001.92
2018-02-12T01:50:46.863Z,1001.93
2018-02-12T01:50:47.464Z,1001.90
2018-02-12T01:50:48.061Z,1001.96
2018-02-12T01:50:48.662Z,1001.94
2018-02-12T01:51:43.163Z,1001.95
2018-02-12T01:51:43.739Z,1001.97
2018-02-12T01:51:44.336Z,1001.96
2018-02-12T01:51:44.936Z,1001.93
2018-02-12T01:51:45.537Z,1001.99
2018-02-12T01:51:46.135Z,1001.94
2018-02-12T01:51:46.736Z,1001.98
2018-02-12T01:51:47.340Z,1001.93
2018-02-12T01:52:41.863Z,1001.96
2018-02-12T01:52:42.412Z,1001.95
2018-02-12T01:52:43.012Z,1001.97
2018-02-12T01:52:43.614Z,1001.95
2018-02-12T01:52:44.212Z,1001.96
2018-02-12T01:52:44.812Z,1001.97
2018-02-12T01:52:45.413Z,1001.97
2018-02-12T01:52:46.014Z,1001.99
2018-02-12T01:53:39.494Z,1001.98
2018-02-12T01:53:40.068Z,1001.98
2018-02-12T01:53:40.666Z,1002.02
2018-02-12T01:53:41.266Z,1002.01
2018-02-12T01:53:41.865Z,1002.04
2018-02-12T01:53:42.469Z,1002.02
2018-02-12T01:53:43.066Z,1001.99
2018-02-12T01:53:43.666Z,1002.02
2018-02-12T01:54:37.144Z,1002.03
2018-02-12T01:54:37.719Z,1002.01
2018-02-12T01:54:38.316Z,1002.05
2018-02-12T01:54:38.916Z,1002.02
2018-02-12T01:54:39.517Z,1002.02
2018-02-12T01:54:40.117Z,1002.02
2018-02-12T01:54:40.716Z,1002.05
2018-02-12T01:54:41.315Z,1001.99
2018-02-12T01:55:35.821Z,1002.05
2018-02-12T01:55:36.392Z,1002.04
2018-02-12T01:55:36.991Z,1002.07
2018-02-12T01:55:37.592Z,1002.01
2018-02-12T01:55:38.191Z,1002.02
2018-02-12T01:55:38.790Z,1002.05
2018-02-12T01:55:39.392Z,1002.06
2018-02-12T01:55:39.991Z,1002.05
2018-02-12T01:56:33.472Z,1002.09
2018-02-12T01:56:34.045Z,1002.12
2018-02-12T01:56:34.644Z,1002.10
2018-02-12T01:56:35.251Z,1002.11
2018-02-12T01:56:35.844Z,1002.12
2018-02-12T01:56:36.443Z,1002.12
2018-02-12T01:56:37.044Z,1002.10
2018-02-12T01:56:37.643Z,1002.04
2018-02-12T01:57:32.146Z,1002.11
2018-02-12T01:57:32.720Z,1002.08
2018-02-12T01:57:33.319Z,1002.07
2018-02-12T01:57:33.922Z,1002.13
2018-02-12T01:57:34.524Z,1002.09
2018-02-12T01:57:35.119Z,1002.12
2018-02-12T01:57:35.718Z,1002.14
2018-02-12T01:57:36.320Z,1002.09
2018-02-12T01:58:29.799Z,1002.16
2018-02-12T01:58:30.371Z,1002.16
2018-02-12T01:58:30.971Z,1002.21
2018-02-12T01:58:31.571Z,1002.15
2018-02-12T01:58:32.172Z,1002.15
2018-02-12T01:58:32.770Z,1002.14
2018-02-12T01:58:33.373Z,1002.12
2018-02-12T01:58:33.970Z,1002.13
2018-02-12T01:59:27.452Z,1002.18
2018-02-12T01:59:28.024Z,1002.20
2018-02-12T01:59:28.625Z,1002.17
2018-02-12T01:59:29.224Z,1002.20
2018-02-12T01:59:29.823Z,1002.15
2018-02-12T01:59:30.429Z,1002.19
2018-02-12T01:59:31.022Z,1002.17
2018-02-12T01:59:31.622Z,1002.19
2018-02-12T02:00:25.102Z,1002.17
2018-02-12T02:00:25.676Z,1002.15
2018-02-12T02:00:26.275Z,1002.13
2018-02-12T02:00:26.876Z,1002.15
2018-02-12T02:00:27.476Z,1002.18
2018-02-12T02:00:28.081Z,1002.17
2018-02-12T02:00:28.674Z,1002.13
2018-02-12T02:00:29.273Z,1002.18
2018-02-12T02:01:22.754Z,1002.17
2018-02-12T02:01:23.327Z,1002.17
2018-02-12T02:01:23.974Z,1002.18
2018-02-12T02:01:24.528Z,1002.20
2018-02-12T02:01:25.127Z,1002.19
2018-02-12T02:01:25.727Z,1002.18
2018-02-12T02:01:26.328Z,1002.19
2018-02-12T02:01:26.954Z,1002.17
2018-02-12T02:02:20.407Z,1002.16
2018-02-12T02:02:20.979Z,1002.15
2018-02-12T02:02:21.579Z,1002.16
2018-02-12T02:02:22.185Z,1002.20
2018-02-12T02:02:22.778Z,1002.15
2018-02-12T02:02:23.384Z,1002.16
2018-02-12T02:02:23.982Z,1002.17
2018-02-12T02:02:24.579Z,1002.16
2018-02-12T02:03:18.098Z,1002.19
2018-02-12T02:03:18.628Z,1002.17
2018-02-12T02:03:19.229Z,1002.17
2018-02-12T02:03:19.828Z,1002.14
2018-02-12T02:03:20.432Z,1002.11
2018-02-12T02:03:21.028Z,1002.10
2018-02-12T02:03:21.630Z,1002.12
2018-02-12T02:03:22.227Z,1002.14
2018-02-12T02:04:16.732Z,1002.18
2018-02-12T02:04:17.304Z,1002.16
2018-02-12T02:04:17.904Z,1002.19
2018-02-12T02:04:18.505Z,1002.18
2018-02-12T02:04:19.104Z,1002.22
2018-02-12T02:04:19.704Z,1002.20
2018-02-12T02:04:20.313Z,1002.19
2018-02-12T02:04:20.905Z,1002.19
2018-02-12T02:05:14.391Z,1002.23
2018-02-12T02:05:14.958Z,1002.22
2018-02-12T02:05:15.558Z,1002.19
2018-02-12T02:05:16.159Z,1002.25
2018-02-12T02:05:16.758Z,1002.23
2018-02-12T02:05:17.367Z,1002.25
2018-02-12T02:05:17.959Z,1002.22
2018-02-12T02:05:18.557Z,1002.21
2018-02-12T02:06:12.038Z,1002.25
2018-02-12T02:06:12.610Z,1002.24
2018-02-12T02:06:13.211Z,1002.24
2018-02-12T02:06:13.810Z,1002.25
2018-02-12T02:06:14.410Z,1002.26
2018-02-12T02:06:15.013Z,1002.24
2018-02-12T02:06:15.612Z,1002.23
2018-02-12T02:06:16.208Z,1002.26
2018-02-12T02:07:10.712Z,1002.19
2018-02-12T02:07:11.285Z,1002.25
2018-02-12T02:07:11.884Z,1002.24
2018-02-12T02:07:12.484Z,1002.27
2018-02-12T02:07:13.084Z,1002.28
2018-02-12T02:07:13.683Z,1002.27
2018-02-12T02:07:14.292Z,1002.27
2018-02-12T02:07:14.884Z,1002.27
2018-02-12T02:08:08.365Z,1002.31
2018-02-12T02:08:08.939Z,1002.32
2018-02-12T02:08:09.541Z,1002.33
2018-02-12T02:08:10.136Z,1002.28
2018-02-12T02:08:10.734Z,1002.28
2018-02-12T02:08:11.337Z,1002.31
2018-02-12T02:08:11.935Z,1002.31
2018-02-12T02:08:12.535Z,1002.28
2018-02-12T02:09:06.022Z,1002.28
2018-02-12T02:09:06.591Z,1002.24
2018-02-12T02:09:07.189Z,1002.26
2018-02-12T02:09:07.788Z,1002.27
2018-02-12T02:09:08.388Z,1002.24
2018-02-12T02:09:08.992Z,1002.28
2018-02-12T02:09:09.590Z,1002.27
2018-02-12T02:09:10.188Z,1002.28
2018-02-12T02:10:03.674Z,1002.33
2018-02-12T02:10:04.242Z,1002.30
2018-02-12T02:10:04.841Z,1002.33
2018-02-12T02:10:05.440Z,1002.33
2018-02-12T02:10:06.046Z,1002.30
2018-02-12T02:10:06.644Z,1002.33
2018-02-12T02:10:07.238Z,1002.31
2018-02-12T02:10:07.839Z,1002.28
2018-02-12T02:11:01.320Z,1002.28
2018-02-12T02:11:01.894Z,1002.29
2018-02-12T02:11:02.494Z,1002.28
2018-02-12T02:11:03.091Z,1002.31
2018-02-12T02:11:03.692Z,1002.31
2018-02-12T02:11:04.292Z,1002.27
2018-02-12T02:11:04.894Z,1002.30
2018-02-12T02:11:05.493Z,1002.30
2018-02-12T02:11:58.973Z,1002.37
2018-02-12T02:11:59.543Z,1002.35
2018-02-12T02:12:00.143Z,1002.35
2018-02-12T02:12:00.744Z,1002.32
2018-02-12T02:12:01.344Z,1002.34
2018-02-12T02:12:01.946Z,1002.37
2018-02-12T02:12:02.543Z,1002.34
2018-02-12T02:12:03.142Z,1002.39
2018-02-12T02:12:56.624Z,1002.32
2018-02-12T02:12:57.196Z,1002.33
2018-02-12T02:12:57.796Z,1002.32
2018-02-12T02:12:58.394Z,1002.34
2018-02-12T02:12:58.994Z,1002.29
2018-02-12T02:12:59.603Z,1002.27
2018-02-12T02:13:00.194Z,1002.30
2018-02-12T02:13:00.794Z,1002.29
2018-02-12T02:13:54.276Z,1002.24
2018-02-12T02:13:54.848Z,1002.27
2018-02-12T02:13:55.446Z,1002.28
2018-02-12T02:13:56.046Z,1002.30
2018-02-12T02:13:56.647Z,1002.30
2018-02-12T02:13:57.250Z,1002.27
2018-02-12T02:13:57.845Z,1002.25
2018-02-12T02:13:58.445Z,1002.26
2018-02-12T02:14:51.932Z,1002.37
2018-02-12T02:14:52.499Z,1002.33
2018-02-12T02:14:53.098Z,1002.34
2018-02-12T02:14:53.699Z,1002.33
2018-02-12T02:14:54.298Z,1002.30
2018-02-12T02:14:54.912Z,1002.34
2018-02-12T02:14:55.497Z,1002.36
2018-02-12T02:14:56.098Z,1002.35
2018-02-12T02:15:49.577Z,1002.43
2018-02-12T02:15:50.152Z,1002.40
2018-02-12T02:15:50.750Z,1002.36
2018-02-12T02:15:51.350Z,1002.35
2018-02-12T02:15:51.949Z,1002.37
2018-02-12T02:15:52.553Z,1002.40
2018-02-12T02:15:53.150Z,1002.41
2018-02-12T02:15:53.752Z,1002.38
2018-02-12T02:16:48.254Z,1002.45
2018-02-12T02:16:48.826Z,1002.48
2018-02-12T02:16:49.424Z,1002.45
2018-02-12T02:16:50.025Z,1002.48
2018-02-12T02:16:50.623Z,1002.45
2018-02-12T02:16:51.229Z,1002.47
2018-02-12T02:16:51.823Z,1002.50
2018-02-12T02:16:52.422Z,1002.46
2018-02-12T02:17:46.930Z,1002.39
2018-02-12T02:17:47.501Z,1002.39
2018-02-12T02:17:48.101Z,1002.38
2018-02-12T02:17:48.700Z,1002.36
2018-02-12T02:17:49.300Z,1002.38
2018-02-12T02:17:49.913Z,1002.40
2018-02-12T02:17:50.500Z,1002.36
2018-02-12T02:17:51.099Z,1002.31
2018-02-12T02:18:44.586Z,1002.37
2018-02-12T02:18:45.154Z,1002.40
2018-02-12T02:18:45.755Z,1002.39
2018-02-12T02:18:46.352Z,1002.40
2018-02-12T02:18:46.953Z,1002.41
2018-02-12T02:18:47.557Z,1002.39
2018-02-12T02:18:48.153Z,1002.41
2018-02-12T02:18:48.752Z,1002.38
2018-02-12T02:19:42.238Z,1002.37
2018-02-12T02:19:42.806Z,1002.41
2018-02-12T02:19:43.405Z,1002.40
2018-02-12T02:19:44.005Z,1002.41
2018-02-12T02:19:44.604Z,1002.44
2018-02-12T02:19:45.208Z,1002.43
2018-02-12T02:19:45.804Z,1002.47
2018-02-12T02:19:46.404Z,1002.46
2018-02-12T02:20:40.909Z,1002.48
2018-02-12T02:20:41.480Z,1002.46
2018-02-12T02:20:42.085Z,1002.45
2018-02-12T02:20:42.680Z,1002.47
2018-02-12T02:20:43.279Z,1002.47
2018-02-12T02:20:43.878Z,1002.44
2018-02-12T02:20:44.479Z,1002.50
2018-02-12T02:20:45.079Z,1002.48
2018-02-12T02:21:38.647Z,1002.44
2018-02-12T02:21:39.154Z,1002.46
2018-02-12T02:21:39.750Z,1002.47
2018-02-12T02:21:40.350Z,1002.47
2018-02-12T02:21:40.947Z,1002.47
2018-02-12T02:21:41.548Z,1002.44
2018-02-12T02:21:42.165Z,1002.51
2018-02-12T02:21:42.747Z,1002.48
2018-02-12T02:22:36.315Z,1002.47
2018-02-12T02:22:36.886Z,1002.51
2018-02-12T02:22:37.486Z,1002.49
2018-02-12T02:22:38.086Z,1002.47
2018-02-12T02:22:38.686Z,1002.47
2018-02-12T02:22:39.288Z,1002.49
2018-02-12T02:22:39.885Z,1002.49
2018-02-12T02:22:40.496Z,1002.47
2018-02-12T02:23:33.965Z,1002.42
2018-02-12T02:23:34.537Z,1002.48
2018-02-12T02:23:35.137Z,1002.45
2018-02-12T02:23:35.737Z,1002.48
2018-02-12T02:23:36.337Z,1002.48
2018-02-12T02:23:36.945Z,1002.47
2018-02-12T02:23:37.536Z,1002.48
2018-02-12T02:23:38.137Z,1002.48
2018-02-12T02:24:32.641Z,1002.45
2018-02-12T02:24:33.214Z,1002.45
2018-02-12T02:24:33.813Z,1002.42
2018-02-12T02:24:34.412Z,1002.43
2018-02-12T02:24:35.013Z,1002.42
2018-02-12T02:24:35.618Z,1002.48
2018-02-12T02:24:36.215Z,1002.46
2018-02-12T02:24:36.815Z,1002.45
2018-02-12T02:25:31.316Z,1002.51
2018-02-12T02:25:31.887Z,1002.49
2018-02-12T02:25:32.487Z,1002.51
2018-02-12T02:25:33.133Z,1002.49
2018-02-12T02:25:33.688Z,1002.49
2018-02-12T02:25:34.287Z,1002.44
2018-02-12T02:25:34.888Z,1002.45
2018-02-12T02:25:35.486Z,1002.44
2018-02-12T02:26:28.974Z,1002.53
2018-02-12T02:26:29.542Z,1002.51
2018-02-12T02:26:30.160Z,1002.51
2018-02-12T02:26:30.741Z,1002.47
2018-02-12T02:26:31.341Z,1002.49
2018-02-12T02:26:31.945Z,1002.45
2018-02-12T02:26:32.540Z,1002.46
2018-02-12T02:26:33.140Z,1002.45
2018-02-12T02:27:26.623Z,1002.50
2018-02-12T02:27:27.193Z,1002.48
2018-02-12T02:27:27.793Z,1002.46
2018-02-12T02:27:28.392Z,1002.43
2018-02-12T02:27:28.992Z,1002.46
2018-02-12T02:27:29.595Z,1002.45
2018-02-12T02:27:30.192Z,1002.44
2018-02-12T02:27:30.790Z,1002.45
2018-02-12T02:28:25.301Z,1002.46
2018-02-12T02:28:25.869Z,1002.47
2018-02-12T02:28:26.468Z,1002.46
2018-02-12T02:28:27.068Z,1002.45
2018-02-12T02:28:27.667Z,1002.46
2018-02-12T02:28:28.266Z,1002.48
2018-02-12T02:28:28.865Z,1002.46
2018-02-12T02:28:29.467Z,1002.43
2018-02-12T02:29:22.947Z,1002.46
2018-02-12T02:29:23.520Z,1002.43
2018-02-12T02:29:24.120Z,1002.47
2018-02-12T02:29:24.721Z,1002.46
2018-02-12T02:29:25.335Z,1002.44
2018-02-12T02:29:25.923Z,1002.45
2018-02-12T02:29:26.518Z,1002.44
2018-02-12T02:29:27.163Z,1002.44
2018-02-12T02:30:21.632Z,1002.48
2018-02-12T02:30:22.196Z,1002.50
2018-02-12T02:30:22.795Z,1002.49
2018-02-12T02:30:23.395Z,1002.49
2018-02-12T02:30:23.993Z,1002.46
2018-02-12T02:30:24.598Z,1002.48
2018-02-12T02:30:25.199Z,1002.52
2018-02-12T02:30:25.794Z,1002.49
2018-02-12T02:31:19.275Z,1002.52
2018-02-12T02:31:19.849Z,1002.51
2018-02-12T02:31:20.449Z,1002.49
2018-02-12T02:31:21.060Z,1002.48
2018-02-12T02:31:21.654Z,1002.52
2018-02-12T02:31:22.257Z,1002.49
2018-02-12T02:31:22.846Z,1002.47
2018-02-12T02:31:23.446Z,1002.53
2018-02-12T02:32:17.950Z,1002.50
2018-02-12T02:32:18.521Z,1002.47
2018-02-12T02:32:19.124Z,1002.47
2018-02-12T02:32:19.722Z,1002.46
2018-02-12T02:32:20.328Z,1002.54
2018-02-12T02:32:20.922Z,1002.49
2018-02-12T02:32:21.525Z,1002.53
2018-02-12T02:32:22.121Z,1002.53
2018-02-12T02:33:15.607Z,1002.54
2018-02-12T02:33:16.175Z,1002.53
2018-02-12T02:33:16.775Z,1002.53
2018-02-12T02:33:17.374Z,1002.52
2018-02-12T02:33:17.979Z,1002.52
2018-02-12T02:33:18.578Z,1002.53
2018-02-12T02:33:19.173Z,1002.52
2018-02-12T02:33:19.774Z,1002.54
2018-02-12T02:34:14.278Z,1002.58
2018-02-12T02:34:14.852Z,1002.52
2018-02-12T02:34:15.456Z,1002.51
2018-02-12T02:34:16.050Z,1002.56
2018-02-12T02:34:16.650Z,1002.56
2018-02-12T02:34:17.254Z,1002.53
2018-02-12T02:34:17.849Z,1002.54
2018-02-12T02:34:18.449Z,1002.55
2018-02-12T02:35:12.958Z,1002.47
2018-02-12T02:35:13.527Z,1002.46
2018-02-12T02:35:14.126Z,1002.45
2018-02-12T02:35:14.725Z,1002.50
2018-02-12T02:35:15.324Z,1002.45
2018-02-12T02:35:15.927Z,1002.49
2018-02-12T02:35:16.533Z,1002.48
2018-02-12T02:35:17.127Z,1002.45
2018-02-12T02:53:17.068Z,1002.49
2018-02-12T02:53:17.640Z,1002.51
2018-02-12T02:53:18.239Z,1002.46
2018-02-12T02:53:18.837Z,1002.44
2018-02-12T02:53:19.439Z,1002.45
2018-02-12T02:53:20.038Z,1002.47
2018-02-12T02:53:20.637Z,1002.50
2018-02-12T02:53:21.242Z,1002.50
2018-02-12T02:54:14.719Z,1002.50
2018-02-12T02:54:15.292Z,1002.43
2018-02-12T02:54:15.893Z,1002.49
2018-02-12T02:54:16.493Z,1002.50
2018-02-12T02:54:17.091Z,1002.51
2018-02-12T02:54:17.690Z,1002.52
2018-02-12T02:54:18.288Z,1002.51
2018-02-12T02:54:18.892Z,1002.52
2018-02-12T02:55:13.403Z,1002.56
2018-02-12T02:55:13.966Z,1002.55
2018-02-12T02:55:14.567Z,1002.54
2018-02-12T02:55:15.165Z,1002.55
2018-02-12T02:55:15.766Z,1002.54
2018-02-12T02:55:16.364Z,1002.52
2018-02-12T02:55:16.967Z,1002.54
2018-02-12T02:55:17.566Z,1002.57
2018-02-12T02:56:11.048Z,1002.55
2018-02-12T02:56:11.620Z,1002.53
2018-02-12T02:56:12.220Z,1002.55
2018-02-12T02:56:12.819Z,1002.53
2018-02-12T02:56:13.419Z,1002.57
2018-02-12T02:56:14.019Z,1002.55
2018-02-12T02:56:14.618Z,1002.53
2018-02-12T02:56:15.219Z,1002.52
2018-02-12T02:57:09.212Z,1002.53
2018-02-12T02:57:09.784Z,1002.57
2018-02-12T02:57:10.383Z,1002.52
2018-02-12T02:57:10.985Z,1002.56
2018-02-12T02:57:11.582Z,1002.57
2018-02-12T02:57:12.181Z,1002.58
2018-02-12T02:57:12.787Z,1002.54
2018-02-12T02:58:07.274Z,1002.56
2018-02-12T02:58:07.844Z,1002.58
2018-02-12T02:58:08.445Z,1002.57
2018-02-12T02:58:09.045Z,1002.58
2018-02-12T02:58:09.643Z,1002.52
2018-02-12T02:58:10.247Z,1002.55
2018-02-12T02:58:10.844Z,1002.55
2018-02-12T02:58:11.443Z,1002.57
2018-02-12T02:59:05.028Z,1002.53
2018-02-12T02:59:05.600Z,1002.53
2018-02-12T02:59:06.199Z,1002.56
2018-02-12T02:59:06.796Z,1002.51
2018-02-12T02:59:07.397Z,1002.51
2018-02-12T02:59:07.996Z,1002.57
2018-02-12T02:59:08.597Z,1002.55
2018-02-12T02:59:09.197Z,1002.52
2018-02-12T03:00:02.679Z,1002.56
2018-02-12T03:00:03.252Z,1002.56
2018-02-12T03:00:03.851Z,1002.54
2018-02-12T03:00:04.451Z,1002.53
2018-02-12T03:00:05.051Z,1002.52
2018-02-12T03:00:05.650Z,1002.56
2018-02-12T03:00:06.249Z,1002.56
2018-02-12T03:00:06.850Z,1002.56
2018-02-12T03:01:00.338Z,1002.53
2018-02-12T03:01:00.904Z,1002.49
2018-02-12T03:01:01.503Z,1002.53
2018-02-12T03:01:02.103Z,1002.54
2018-02-12T03:01:02.702Z,1002.52
2018-02-12T03:01:03.302Z,1002.51
2018-02-12T03:01:03.902Z,1002.54
2018-02-12T03:01:04.501Z,1002.52
2018-02-12T03:01:57.984Z,1002.52
2018-02-12T03:01:58.555Z,1002.51
2018-02-12T03:01:59.155Z,1002.53
2018-02-12T03:01:59.754Z,1002.53
2018-02-12T03:02:00.354Z,1002.50
2018-02-12T03:02:00.960Z,1002.51
2018-02-12T03:02:01.555Z,1002.49
2018-02-12T03:02:02.153Z,1002.51
2018-02-12T03:02:56.656Z,1002.50
2018-02-12T03:02:57.230Z,1002.47
2018-02-12T03:02:57.830Z,1002.48
2018-02-12T03:02:58.429Z,1002.47
2018-02-12T03:02:59.029Z,1002.42
2018-02-12T03:02:59.628Z,1002.48
2018-02-12T03:03:00.228Z,1002.46
2018-02-12T03:03:00.828Z,1002.47
2018-02-12T03:03:55.335Z,1002.50
2018-02-12T03:03:55.905Z,1002.49
2018-02-12T03:03:56.506Z,1002.43
2018-02-12T03:03:57.106Z,1002.52
2018-02-12T03:03:57.704Z,1002.47
2018-02-12T03:03:58.309Z,1002.52
2018-02-12T03:03:58.904Z,1002.50
2018-02-12T03:03:59.506Z,1002.49
2018-02-12T03:04:52.993Z,1002.50
2018-02-12T03:04:53.558Z,1002.46
2018-02-12T03:04:54.160Z,1002.46
2018-02-12T03:04:54.756Z,1002.45
2018-02-12T03:04:55.357Z,1002.45
2018-02-12T03:04:55.991Z,1002.47
2018-02-12T03:04:56.556Z,1002.47
2018-02-12T03:04:57.155Z,1002.44
2018-02-12T03:05:55.749Z,1002.50
2018-02-12T03:05:56.244Z,1002.47
2018-02-12T03:06:50.751Z,1002.46
2018-02-12T03:06:51.325Z,1002.46
2018-02-12T03:06:51.920Z,1002.45
2018-02-12T03:06:52.518Z,1002.47
2018-02-12T03:06:53.122Z,1002.49
2018-02-12T03:06:53.720Z,1002.49
2018-02-12T03:06:54.320Z,1002.48
2018-02-12T03:07:47.790Z,1002.55
2018-02-12T03:07:48.357Z,1002.53
2018-02-12T03:07:48.960Z,1002.51
2018-02-12T03:07:49.558Z,1002.48
2018-02-12T03:07:50.159Z,1002.47
2018-02-12T03:07:50.758Z,1002.51
2018-02-12T03:07:51.357Z,1002.48
2018-02-12T03:07:51.959Z,1002.49
2018-02-12T03:08:46.465Z,1002.53
2018-02-12T03:08:47.034Z,1002.50
2018-02-12T03:08:47.634Z,1002.52
2018-02-12T03:08:48.234Z,1002.47
2018-02-12T03:08:48.834Z,1002.49
2018-02-12T03:08:49.436Z,1002.48
2018-02-12T03:08:50.034Z,1002.50
2018-02-12T03:08:50.632Z,1002.47
2018-02-12T03:09:45.140Z,1002.51
2018-02-12T03:09:45.714Z,1002.53
2018-02-12T03:09:46.312Z,1002.52
2018-02-12T03:09:46.906Z,1002.50
2018-02-12T03:09:47.506Z,1002.53
2018-02-12T03:09:48.115Z,1002.55
2018-02-12T03:09:48.706Z,1002.52
2018-02-12T03:09:49.306Z,1002.51
2018-02-12T03:10:42.792Z,1002.59
2018-02-12T03:10:43.361Z,1002.55
2018-02-12T03:10:43.965Z,1002.59
2018-02-12T03:10:44.565Z,1002.57
2018-02-12T03:10:45.160Z,1002.55
2018-02-12T03:10:45.761Z,1002.62
2018-02-12T03:10:46.360Z,1002.59
2018-02-12T03:10:46.961Z,1002.58
2018-02-12T03:11:40.444Z,1002.50
2018-02-12T03:11:41.012Z,1002.50
2018-02-12T03:11:41.615Z,1002.48
2018-02-12T03:11:42.212Z,1002.50
2018-02-12T03:11:42.814Z,1002.50
2018-02-12T03:11:43.415Z,1002.51
2018-02-12T03:11:44.012Z,1002.49
2018-02-12T03:11:44.613Z,1002.55
2018-02-12T03:12:39.120Z,1002.57
2018-02-12T03:12:39.688Z,1002.54
2018-02-12T03:12:40.288Z,1002.56
2018-02-12T03:12:40.887Z,1002.54
2018-02-12T03:12:41.488Z,1002.56
2018-02-12T03:12:42.093Z,1002.57
2018-02-12T03:12:42.687Z,1002.55
2018-02-12T03:12:43.286Z,1002.56
2018-02-12T03:13:37.796Z,1002.55
2018-02-12T03:13:38.364Z,1002.53
2018-02-12T03:13:38.968Z,1002.55
2018-02-12T03:13:39.564Z,1002.55
2018-02-12T03:13:40.164Z,1002.53
2018-02-12T03:13:40.764Z,1002.52
2018-02-12T03:13:41.363Z,1002.56
2018-02-12T03:13:41.962Z,1002.51
2018-02-12T03:14:36.470Z,1002.58
2018-02-12T03:14:37.040Z,1002.59
2018-02-12T03:14:37.639Z,1002.56
2018-02-12T03:14:38.238Z,1002.56
2018-02-12T03:14:38.839Z,1002.58
2018-02-12T03:14:39.442Z,1002.58
2018-02-12T03:14:40.038Z,1002.56
2018-02-12T03:14:40.638Z,1002.59
2018-02-12T03:15:35.146Z,1002.54
2018-02-12T03:15:35.715Z,1002.53
2018-02-12T03:15:36.315Z,1002.55
2018-02-12T03:15:36.915Z,1002.53
2018-02-12T03:15:37.513Z,1002.54
2018-02-12T03:15:38.116Z,1002.56
2018-02-12T03:15:38.714Z,1002.57
2018-02-12T03:15:39.313Z,1002.52
2018-02-12T03:16:33.821Z,1002.56
2018-02-12T03:16:34.391Z,1002.56
2018-02-12T03:16:34.995Z,1002.56
2018-02-12T03:16:35.591Z,1002.57
2018-02-12T03:16:36.191Z,1002.57
2018-02-12T03:16:36.793Z,1002.58
2018-02-12T03:16:37.390Z,1002.54
2018-02-12T03:16:37.995Z,1002.57
2018-02-12T03:17:31.476Z,1002.64
2018-02-12T03:17:32.045Z,1002.61
2018-02-12T03:17:32.643Z,1002.58
2018-02-12T03:17:33.244Z,1002.60
2018-02-12T03:17:33.843Z,1002.58
2018-02-12T03:17:34.444Z,1002.61
2018-02-12T03:17:35.042Z,1002.59
2018-02-12T03:17:35.643Z,1002.58
2018-02-12T03:18:29.125Z,1002.58
2018-02-12T03:18:29.695Z,1002.62
2018-02-12T03:18:30.299Z,1002.59
2018-02-12T03:18:30.894Z,1002.55
2018-02-12T03:18:31.495Z,1002.58
2018-02-12T03:18:32.097Z,1002.57
2018-02-12T03:18:32.695Z,1002.59
2018-02-12T03:18:33.299Z,1002.58
2018-02-12T03:19:27.804Z,1002.55
2018-02-12T03:19:28.374Z,1002.58
2018-02-12T03:19:28.973Z,1002.55
2018-02-12T03:19:29.568Z,1002.57
2018-02-12T03:19:30.168Z,1002.57
2018-02-12T03:19:30.774Z,1002.57
2018-02-12T03:19:31.367Z,1002.55
2018-02-12T03:19:31.967Z,1002.55
2018-02-12T03:20:25.454Z,1002.59
2018-02-12T03:20:26.022Z,1002.61
2018-02-12T03:20:26.622Z,1002.59
2018-02-12T03:20:27.222Z,1002.55
2018-02-12T03:20:27.821Z,1002.57
2018-02-12T03:20:28.423Z,1002.61
2018-02-12T03:20:29.022Z,1002.59
2018-02-12T03:20:29.621Z,1002.60
2018-02-12T03:21:24.128Z,1002.57
2018-02-12T03:21:24.700Z,1002.59
2018-02-12T03:21:25.299Z,1002.58
2018-02-12T03:21:25.897Z,1002.58
2018-02-12T03:21:26.497Z,1002.57
2018-02-12T03:21:27.098Z,1002.60
2018-02-12T03:21:27.697Z,1002.58
2018-02-12T03:21:28.297Z,1002.57
2018-02-12T03:22:22.805Z,1002.57
2018-02-12T03:22:23.372Z,1002.58
2018-02-12T03:22:23.972Z,1002.58
2018-02-12T03:22:24.574Z,1002.60
2018-02-12T03:22:25.173Z,1002.57
2018-02-12T03:22:25.773Z,1002.55
2018-02-12T03:22:26.370Z,1002.56
2018-02-12T03:22:26.972Z,1002.56
2018-02-12T03:23:20.456Z,1002.58
2018-02-12T03:23:21.025Z,1002.59
2018-02-12T03:23:21.626Z,1002.57
2018-02-12T03:23:22.225Z,1002.56
2018-02-12T03:23:22.824Z,1002.59
2018-02-12T03:23:23.427Z,1002.60
2018-02-12T03:23:24.024Z,1002.54
2018-02-12T03:23:24.623Z,1002.53
2018-02-12T03:24:18.108Z,1002.62
2018-02-12T03:24:18.678Z,1002.61
2018-02-12T03:24:19.277Z,1002.62
2018-02-12T03:24:19.875Z,1002.63
2018-02-12T03:24:20.475Z,1002.62
2018-02-12T03:24:21.077Z,1002.63
2018-02-12T03:24:21.676Z,1002.60
2018-02-12T03:24:22.275Z,1002.60
2018-02-12T03:25:15.760Z,1002.57
2018-02-12T03:25:16.330Z,1002.60